createdAt,value
2017-05-06T00:00:02.848Z,1016.93
2017-05-06T00:05:03.263Z,1016.92
2017-05-06T00:10:03.043Z,1016.82
2017-05-06T00:15:02.835Z,1016.85
2017-05-06T00:20:03.617Z,1016.75
2017-05-06T00:25:03.261Z,1016.76
2017-05-06T00:30:03.032Z,1016.68
2017-05-06T00:35:02.797Z,1016.64
2017-05-06T00:40:03.604Z,1016.56
2017-05-06T00:45:03.203Z,1016.47
2017-05-06T00:50:02.863Z,1016.39
2017-05-06T00:55:03.499Z,1016.42
2017-05-06T01:00:03.248Z,1016.41
2017-05-06T01:05:02.839Z,1016.32
2017-05-06T01:10:02.701Z,1016.27
2017-05-06T01:15:03.365Z,1016.21
2017-05-06T01:20:03.017Z,1016.18
2017-05-06T01:25:02.715Z,1016.19
2017-05-06T01:30:03.359Z,1016.11
2017-05-06T01:35:03.131Z,1016.02
2017-05-06T01:40:02.918Z,1015.96
2017-05-06T01:45:08.640Z,1015.88
2017-05-06T01:50:03.333Z,1015.91
2017-05-06T01:55:03.105Z,1015.89
2017-05-06T02:00:02.729Z,1015.88
2017-05-06T02:05:03.370Z,1015.95
2017-05-06T02:10:03.160Z,1015.78
2017-05-06T02:15:03.045Z,1015.8
2017-05-06T02:20:03.649Z,1015.78
2017-05-06T02:25:03.339Z,1015.68
2017-05-06T02:30:02.969Z,1015.7
2017-05-06T02:35:02.705Z,1015.71
2017-05-06T02:40:03.338Z,1015.64
2017-05-06T02:45:03.123Z,1015.66
2017-05-06T02:50:02.872Z,1015.66
2017-05-06T02:55:03.609Z,1015.61
2017-05-06T03:00:03.217Z,1015.61
2017-05-06T03:05:02.878Z,1015.54
2017-05-06T03:10:03.558Z,1015.52
2017-05-06T03:15:03.315Z,1015.52
2017-05-06T03:20:02.951Z,1015.41
2017-05-06T03:25:03.605Z,1015.39
2017-05-06T03:30:03.360Z,1015.36
2017-05-06T03:35:02.946Z,1015.35
2017-05-06T03:40:03.635Z,1015.29
2017-05-06T03:45:03.213Z,1015.31
2017-05-06T03:50:02.823Z,1015.27
2017-05-06T03:55:03.599Z,1015.24
2017-05-06T04:01:06.660Z,1015.23
2017-05-06T04:05:10.258Z,1015.26
2017-05-06T04:10:02.946Z,1015.32
2017-05-06T04:15:02.728Z,1015.29
2017-05-06T04:20:03.668Z,1015.22
2017-05-06T04:25:03.699Z,1015.28
2017-05-06T04:30:03.151Z,1015.31
2017-05-06T04:35:02.781Z,1015.21
2017-05-06T04:40:03.500Z,1015.15
2017-05-06T04:45:03.119Z,1015.12
2017-05-06T04:50:02.875Z,1015.04
2017-05-06T04:55:03.616Z,1015.05
2017-05-06T05:00:03.252Z,1015.05
2017-05-06T05:05:03.017Z,1014.94
2017-05-06T05:10:02.738Z,1014.91
2017-05-06T05:15:03.428Z,1014.86
2017-05-06T05:20:02.991Z,1014.88
2017-05-06T05:25:02.686Z,1014.84
2017-05-06T05:30:03.282Z,1014.86
2017-05-06T05:35:02.922Z,1014.83
2017-05-06T05:40:03.615Z,1014.71
2017-05-06T05:45:03.416Z,1014.68
2017-05-06T05:50:03.002Z,1014.73
2017-05-06T05:55:02.738Z,1014.59
2017-05-06T06:00:03.389Z,1014.57
2017-05-06T06:05:03.032Z,1014.58
2017-05-06T06:10:02.924Z,1014.57
2017-05-06T06:15:03.622Z,1014.41
2017-05-06T06:20:03.236Z,1014.47
2017-05-06T06:25:02.966Z,1014.41
2017-05-06T06:30:03.560Z,1014.35
2017-05-06T06:35:03.284Z,1014.19
2017-05-06T06:40:03.171Z,1014.24
2017-05-06T06:45:03.073Z,1014.16
2017-05-06T06:50:02.831Z,1014.16
2017-05-06T06:55:03.408Z,1014.08
2017-05-06T07:00:03.102Z,1013.97
2017-05-06T07:05:02.735Z,1013.95
2017-05-06T07:10:03.505Z,1013.92
2017-05-06T07:15:03.226Z,1013.83
2017-05-06T07:20:03.023Z,1013.78
2017-05-06T07:25:02.850Z,1013.86
2017-05-06T07:30:03.556Z,1013.82
2017-05-06T07:35:03.236Z,1013.84
2017-05-06T07:40:02.847Z,1013.69
2017-05-06T07:45:03.528Z,1013.72
2017-05-06T07:50:03.143Z,1013.62
2017-05-06T07:55:02.886Z,1013.54
2017-05-06T08:00:03.461Z,1013.61
2017-05-06T08:05:03.195Z,1013.56
2017-05-06T08:10:03.063Z,1013.49
2017-05-06T08:15:02.701Z,1013.51
2017-05-06T08:20:03.399Z,1013.44
2017-05-06T08:25:03.161Z,1013.37
2017-05-06T08:30:02.794Z,1013.42
2017-05-06T08:35:03.590Z,1013.42
2017-05-06T08:40:03.292Z,1013.3
2017-05-06T08:45:02.905Z,1013.29
2017-05-06T08:50:03.573Z,1013.1
2017-05-06T08:55:03.199Z,1013.05
2017-05-06T09:00:02.954Z,1012.98
2017-05-06T09:05:02.732Z,1012.98
2017-05-06T09:10:03.609Z,1012.88
2017-05-06T09:15:03.325Z,1012.78
2017-05-06T09:20:02.896Z,1012.79
2017-05-06T09:25:02.747Z,1012.75
2017-05-06T09:30:03.235Z,1012.65
2017-05-06T09:35:02.926Z,1012.51
2017-05-06T09:40:02.727Z,1012.51
2017-05-06T09:45:03.481Z,1012.53
2017-05-06T09:50:03.233Z,1012.52
2017-05-06T09:55:02.978Z,1012.36
2017-05-06T10:00:03.308Z,1012.24
2017-05-06T10:05:03.114Z,1012.15
2017-05-06T10:10:03.312Z,1012.1
2017-05-06T10:15:03.501Z,1012
2017-05-06T10:20:02.731Z,1011.97
2017-05-06T10:25:02.981Z,1011.76
2017-05-06T10:30:02.798Z,1011.78
2017-05-06T10:35:03.530Z,1011.65
2017-05-06T10:40:03.403Z,1011.63
2017-05-06T10:45:02.933Z,1011.49
2017-05-06T10:50:03.396Z,1011.47
2017-05-06T10:55:03.112Z,1011.4
2017-05-06T11:00:03.266Z,1011.33
2017-05-06T11:05:02.801Z,1011.21
2017-05-06T11:10:03.221Z,1011.11
2017-05-06T11:15:03.200Z,1011.16
2017-05-06T11:20:03.018Z,1011.07
2017-05-06T11:25:03.484Z,1011.11
2017-05-06T11:30:03.004Z,1011.07
2017-05-06T11:35:03.167Z,1011.1
2017-05-06T11:40:02.904Z,1010.95
2017-05-06T11:45:03.418Z,1010.89
2017-05-06T11:50:03.037Z,1010.73
2017-05-06T11:55:03.267Z,1010.8
2017-05-06T12:00:02.869Z,1010.58
2017-05-06T12:05:03.316Z,1010.61
2017-05-06T12:10:02.874Z,1010.53
2017-05-06T12:15:03.284Z,1010.58
2017-05-06T12:20:03.617Z,1010.75
2017-05-06T12:25:02.747Z,1010.52
2017-05-06T12:30:03.301Z,1010.5
2017-05-06T12:35:03.505Z,1010.38
2017-05-06T12:40:03.295Z,1010.34
2017-05-06T12:45:03.566Z,1010.38
2017-05-06T12:50:03.591Z,1010.23
2017-05-06T12:55:03.371Z,1010.27
2017-05-06T13:00:02.990Z,1010.22
2017-05-06T13:05:03.039Z,1010.22
2017-05-06T13:10:03.352Z,1010.1
2017-05-06T13:15:02.961Z,1010.06
2017-05-06T13:20:03.239Z,1010.09
2017-05-06T13:25:03.578Z,1010.1
2017-05-06T13:30:03.187Z,1010.05
2017-05-06T13:35:03.468Z,1009.97
2017-05-06T13:40:03.125Z,1009.91
2017-05-06T13:45:03.189Z,1009.84
2017-05-06T13:50:02.692Z,1009.98
2017-05-06T13:55:02.772Z,1009.74
2017-05-06T14:00:03.337Z,1009.81
2017-05-06T14:05:03.613Z,1009.79
2017-05-06T14:10:03.451Z,1009.75
2017-05-06T14:15:02.915Z,1009.7
2017-05-06T14:20:03.771Z,1009.69
2017-05-06T14:25:03.325Z,1009.62
2017-05-06T14:30:02.930Z,1009.6
2017-05-06T14:35:03.129Z,1009.71
2017-05-06T14:40:02.799Z,1009.71
2017-05-06T14:45:03.273Z,1009.68
2017-05-06T14:50:02.728Z,1009.74
2017-05-06T14:55:03.022Z,1009.66
2017-05-06T15:00:03.568Z,1009.77
2017-05-06T15:05:02.921Z,1009.7
2017-05-06T15:10:03.313Z,1009.65
2017-05-06T15:15:02.750Z,1009.65
2017-05-06T15:20:03.149Z,1009.65
2017-05-06T15:25:03.423Z,1009.63
2017-05-06T15:30:03.126Z,1009.63
2017-05-06T15:35:03.419Z,1009.53
2017-05-06T15:40:03.082Z,1009.5
2017-05-06T15:45:02.748Z,1009.59
2017-05-06T15:50:03.199Z,1009.54
2017-05-06T15:55:03.421Z,1009.54
2017-05-06T16:00:02.853Z,1009.54
2017-05-06T16:05:03.083Z,1009.5
2017-05-06T16:10:03.545Z,1009.46
2017-05-06T16:15:03.254Z,1009.45
2017-05-06T16:20:02.981Z,1009.49
2017-05-06T16:25:03.038Z,1009.45
2017-05-06T16:30:03.605Z,1009.45
2017-05-06T16:35:03.140Z,1009.48
2017-05-06T16:40:02.632Z,1009.49
2017-05-06T16:45:03.168Z,1009.48
2017-05-06T16:50:02.913Z,1009.49
2017-05-06T16:55:03.242Z,1009.5
2017-05-06T17:00:03.406Z,1009.45
2017-05-06T17:05:03.521Z,1009.46
2017-05-06T17:10:03.112Z,1009.44
2017-05-06T17:15:02.896Z,1009.44
2017-05-06T17:20:03.341Z,1009.44
2017-05-06T17:25:02.806Z,1009.5
2017-05-06T17:30:03.085Z,1009.53
2017-05-06T17:35:03.602Z,1009.52
2017-05-06T17:40:03.174Z,1009.56
2017-05-06T17:45:02.757Z,1009.52
2017-05-06T17:50:02.771Z,1009.53
2017-05-06T17:55:03.637Z,1009.59
2017-05-06T18:00:02.666Z,1009.56
2017-05-06T18:05:03.452Z,1009.54
2017-05-06T18:10:03.499Z,1009.59
2017-05-06T18:15:03.471Z,1009.58
2017-05-06T18:20:03.486Z,1009.56
2017-05-06T18:25:02.810Z,1009.63
2017-05-06T18:30:02.838Z,1009.63
2017-05-06T18:35:03.495Z,1009.64
2017-05-06T18:40:03.296Z,1009.62
2017-05-06T18:45:02.982Z,1009.68
2017-05-06T18:50:02.852Z,1009.79
2017-05-06T18:55:03.463Z,1009.81
2017-05-06T19:00:02.800Z,1009.8
2017-05-06T19:05:03.581Z,1009.79
2017-05-06T19:10:03.128Z,1009.82
2017-05-06T19:15:03.365Z,1009.87
2017-05-06T19:20:02.674Z,1009.89
2017-05-06T19:25:03.253Z,1009.87
2017-05-06T19:30:03.523Z,1009.93
2017-05-06T19:35:03.127Z,1009.94
2017-05-06T19:40:03.377Z,1009.94
2017-05-06T19:45:02.821Z,1010
2017-05-06T19:50:03.370Z,1010.03
2017-05-06T19:55:03.651Z,1010
2017-05-06T20:00:03.279Z,1010.02
2017-05-06T20:05:03.562Z,1010.03
2017-05-06T20:10:03.162Z,1010.08
2017-05-06T20:15:03.134Z,1010.16
2017-05-06T20:20:02.921Z,1010.18
2017-05-06T20:25:03.102Z,1010.16
2017-05-06T20:30:02.901Z,1010.22
2017-05-06T20:35:02.996Z,1010.22
2017-05-06T20:40:03.116Z,1010.26
2017-05-06T20:45:03.064Z,1010.29
2017-05-06T20:50:03.250Z,1010.32
2017-05-06T20:55:03.146Z,1010.32
2017-05-06T21:00:03.290Z,1010.32
2017-05-06T21:05:03.105Z,1010.41
2017-05-06T21:10:03.120Z,1010.48
2017-05-06T21:15:02.918Z,1010.44
2017-05-06T21:20:03.625Z,1010.48
2017-05-06T21:25:03.405Z,1010.54
2017-05-06T21:30:02.987Z,1010.57
2017-05-06T21:35:03.592Z,1010.54
2017-05-06T21:40:03.228Z,1010.54
2017-05-06T21:45:02.797Z,1010.53
2017-05-06T21:50:03.430Z,1010.56
2017-05-06T21:55:03.038Z,1010.64
2017-05-06T22:00:02.797Z,1010.68
2017-05-06T22:05:03.457Z,1010.73
2017-05-06T22:10:03.087Z,1010.76
2017-05-06T22:15:02.853Z,1010.8
2017-05-06T22:20:03.538Z,1010.88
2017-05-06T22:25:03.294Z,1010.94
2017-05-06T22:30:02.868Z,1010.97
2017-05-06T22:35:03.607Z,1011.04
2017-05-06T22:40:03.272Z,1011.01
2017-05-06T22:45:02.959Z,1011.04
2017-05-06T22:50:02.742Z,1011.04
2017-05-06T22:55:03.460Z,1011.06
2017-05-06T23:00:03.095Z,1010.98
2017-05-06T23:05:03.104Z,1010.97
2017-05-06T23:10:02.768Z,1011.01
2017-05-06T23:15:03.558Z,1011.03
2017-05-06T23:20:03.188Z,1011.02
2017-05-06T23:25:02.856Z,1011.06
2017-05-06T23:30:03.502Z,1011.07
2017-05-06T23:35:03.127Z,1011.17
2017-05-06T23:40:02.786Z,1011.12
2017-05-06T23:45:03.391Z,1011.15
2017-05-06T23:50:02.982Z,1011.09
2017-05-06T23:55:02.800Z,1011.1
